Capitol Logistics 305


KSEA
Seattle-Tacoma International Airport
Seattle, Washington, US
KRFD
Chicago/Rockford International Airport
Rockford, Illinois, US

Activity Log

Date Flight Route Aircraft Duration
05/21/2020 CPX305 KSEA/16L MONTN1 NORMY J12 BLUIT J90 MWH J34 HLN J136 BIL J16 MCW J90 JIBOR KRFD/I07 B763 3h 41m
11/26/2019 CPX419 NORMY J12 EPH HLN DPR J16 FSD DBQ B738 3h 45m
07/01/2019 CPX419 NORMY J12 EPH HLN DPR J16 FSD DBQ B752 3h 23m
06/26/2019 CPX305 NORMY J12 EPH HLN DPR J16 FSD DBQ B763 3h 20m
01/22/2019 CPX419 NORMY J12 EPH HLN DPR J16 FSD DBQ B752 3h 08m

Route Details

Aircraft Information
Primary: Boeing 767-300BDSF
Backup: Not Available
Route Data
Distance: 1662nm
Sched. Duration: 4h 29m
Avg. Duration: 3h 27m (-102m)
Times Flown: 5
Recm'd Route: NORMY J12 EPH HLN DPR J16 FSD DBQ
Planned Altitude: 35,000ft
Origin Wx: KSEA 060753Z 22006KT 10SM SCT026 BKN037 OVC120 12/08 A2977 RMK AO2 SLP085 T01220083 401890106
Dest. Wx: KRFD 060754Z 33005KT 10SM FEW140 SCT250 19/12 A3000 RMK AO2 SLP155 T01890122 $
Notes:

Financial History
Total Freight: 399,777lbs
Average Load: 79,955lbs/flt
Fuel Used: 148,530lbs
Avg. Fuel Used: 29,706lbs/flt
Fuel Expense: $166,354
Avg. Fuel Expense: $33,271
Avg. Fuel Cost: $1.12/lbs
Total Gross Income: $542,257
Pilot Pay: $1,025
Total Expenses: $58,824
Total Revenue: $313,331
Average Revenue: $108,451.43